createdAt,value
2023-02-05T00:00:29.508Z,6.28
2023-02-05T00:01:52.370Z,7.20
2023-02-05T00:03:14.279Z,6.65
2023-02-05T00:04:37.321Z,6.47
2023-02-05T00:05:59.523Z,5.95
2023-02-05T00:07:24.118Z,6.10
2023-02-05T00:08:45.963Z,5.82
2023-02-05T00:10:09.132Z,5.93
2023-02-05T00:11:32.589Z,5.20
2023-02-05T00:12:55.877Z,5.28
2023-02-05T00:14:17.645Z,6.10
2023-02-05T00:15:43.129Z,5.32
2023-02-05T00:17:05.016Z,5.65
2023-02-05T00:18:27.809Z,6.10
2023-02-05T00:19:50.815Z,5.43
2023-02-05T00:21:14.381Z,4.95
2023-02-05T00:22:37.626Z,4.75
2023-02-05T00:24:00.487Z,4.93
2023-02-05T00:25:22.295Z,5.00
2023-02-05T00:26:45.194Z,4.90
2023-02-05T00:28:08.386Z,4.70
2023-02-05T00:29:31.627Z,4.47
2023-02-05T00:30:54.644Z,5.15
2023-02-05T00:32:17.573Z,5.80
2023-02-05T00:33:39.552Z,5.40
2023-02-05T00:35:03.254Z,4.65
2023-02-05T00:36:26.133Z,5.45
2023-02-05T00:37:50.394Z,4.95
2023-02-05T00:39:15.033Z,5.70
2023-02-05T00:40:37.855Z,5.40
2023-02-05T00:41:59.979Z,5.47
2023-02-05T00:43:22.944Z,5.25
2023-02-05T00:44:45.758Z,5.30
2023-02-05T00:46:12.210Z,4.97
2023-02-05T00:47:34.305Z,5.50
2023-02-05T00:48:57.229Z,4.88
2023-02-05T00:50:21.148Z,5.72
2023-02-05T00:51:43.009Z,5.63
2023-02-05T00:53:07.807Z,5.68
2023-02-05T00:54:31.046Z,5.50
2023-02-05T00:55:53.250Z,7.05
2023-02-05T00:57:16.892Z,21.73
2023-02-05T00:58:39.703Z,44.05
2023-02-05T01:00:02.725Z,40.97
2023-02-05T01:01:26.020Z,17.60
2023-02-05T01:02:50.053Z,7.10
2023-02-05T01:04:12.937Z,6.20
2023-02-05T01:05:37.708Z,7.22
2023-02-05T01:06:59.749Z,7.18
2023-02-05T01:08:24.075Z,6.80
2023-02-05T01:09:47.255Z,5.78
2023-02-05T01:11:11.307Z,6.03
2023-02-05T01:12:34.722Z,6.13
2023-02-05T01:13:57.008Z,5.75
2023-02-05T01:15:20.592Z,6.15
2023-02-05T01:16:42.678Z,9.23
2023-02-05T01:18:05.894Z,8.35
2023-02-05T01:19:28.034Z,5.50
2023-02-05T01:20:50.967Z,5.68
2023-02-05T01:22:13.052Z,4.75
2023-02-05T01:23:37.233Z,4.47
2023-02-05T01:27:03.926Z,5.05
2023-02-05T01:28:26.222Z,5.47
2023-02-05T01:29:50.202Z,4.35
2023-02-05T01:31:13.317Z,5.00
2023-02-05T01:32:35.683Z,5.43
2023-02-05T01:33:58.511Z,5.03
2023-02-05T01:35:21.369Z,4.38
2023-02-05T01:36:43.345Z,4.57
2023-02-05T01:38:06.081Z,4.65
2023-02-05T01:39:40.129Z,5.13
2023-02-05T01:41:02.045Z,4.68
2023-02-05T01:42:27.728Z,5.28
2023-02-05T01:44:10.466Z,5.07
2023-02-05T01:45:50.946Z,5.18
2023-02-05T01:47:13.906Z,4.82
2023-02-05T01:48:39.307Z,5.05
2023-02-05T01:50:02.402Z,4.68
2023-02-05T01:51:25.974Z,4.15
2023-02-05T01:52:47.964Z,4.88
2023-02-05T01:54:11.067Z,4.70
2023-02-05T01:55:36.239Z,5.30
2023-02-05T01:57:14.002Z,5.82
2023-02-05T01:58:38.418Z,5.47
2023-02-05T02:00:01.408Z,6.75
2023-02-05T02:01:24.534Z,7.15
2023-02-05T02:02:47.502Z,7.47
2023-02-05T02:04:11.386Z,6.68
2023-02-05T02:05:33.932Z,7.05
2023-02-05T02:06:57.124Z,6.55
2023-02-05T02:08:19.069Z,6.72
2023-02-05T02:09:43.424Z,7.03
2023-02-05T02:11:08.664Z,7.13
2023-02-05T02:12:35.245Z,7.75
2023-02-05T02:14:00.862Z,7.00
2023-02-05T02:15:24.488Z,7.53
2023-02-05T02:16:48.071Z,6.60
2023-02-05T02:18:28.495Z,7.28
2023-02-05T02:19:35.074Z,6.35
2023-02-05T02:20:38.279Z,6.88
2023-02-05T02:21:57.825Z,7.50
2023-02-05T02:23:09.757Z,8.00
2023-02-05T02:24:38.118Z,6.55
2023-02-05T02:26:12.880Z,6.32
2023-02-05T02:27:33.902Z,6.28
2023-02-05T02:28:42.198Z,6.95
2023-02-05T02:29:48.803Z,8.50
2023-02-05T02:30:59.453Z,7.93
2023-02-05T02:32:11.850Z,6.75
2023-02-05T02:33:19.021Z,6.45
2023-02-05T02:34:33.102Z,7.00
2023-02-05T02:35:43.098Z,7.05
2023-02-05T02:36:49.919Z,6.65
2023-02-05T02:37:58.637Z,6.50
2023-02-05T02:39:05.418Z,6.10
2023-02-05T02:40:12.478Z,6.05
2023-02-05T02:41:18.699Z,6.72
2023-02-05T02:42:25.552Z,6.20
2023-02-05T02:43:31.015Z,5.85
2023-02-05T02:44:40.425Z,7.13
2023-02-05T02:45:46.564Z,6.15
2023-02-05T02:46:55.454Z,6.35
2023-02-05T02:47:59.379Z,7.47
2023-02-05T02:49:06.405Z,7.45
2023-02-05T02:50:12.245Z,8.70
2023-02-05T02:51:17.197Z,8.35
2023-02-05T02:52:21.067Z,8.77
2023-02-05T02:53:27.363Z,6.78
2023-02-05T02:54:29.527Z,7.47
2023-02-05T02:55:37.004Z,8.18
2023-02-05T02:56:40.467Z,8.00
2023-02-05T02:57:44.949Z,6.75
2023-02-05T02:58:49.881Z,6.93
2023-02-05T02:59:58.308Z,6.45
2023-02-05T03:01:01.942Z,6.20
2023-02-05T03:02:07.302Z,6.57
2023-02-05T03:03:10.903Z,7.50
2023-02-05T03:04:19.803Z,8.50
2023-02-05T03:05:22.701Z,7.88
2023-02-05T03:06:27.343Z,7.75
2023-02-05T03:07:32.316Z,7.78
2023-02-05T03:08:39.761Z,8.18
2023-02-05T03:09:46.043Z,8.15
2023-02-05T03:10:52.142Z,9.13
2023-02-05T03:11:54.491Z,8.05
2023-02-05T03:12:59.865Z,7.63
2023-02-05T03:14:03.302Z,8.45
2023-02-05T03:15:12.524Z,8.75
2023-02-05T03:16:15.890Z,8.73
2023-02-05T03:17:19.872Z,7.97
2023-02-05T03:18:24.611Z,7.60
2023-02-05T03:19:27.951Z,7.90
2023-02-05T03:20:33.508Z,8.35
2023-02-05T03:21:41.688Z,8.40
2023-02-05T03:22:43.620Z,8.13
2023-02-05T03:23:46.901Z,7.90
2023-02-05T03:24:49.978Z,7.45
2023-02-05T03:25:53.138Z,8.27
2023-02-05T03:26:59.627Z,7.80
2023-02-05T03:28:03.068Z,8.90
2023-02-05T03:29:10.170Z,8.88
2023-02-05T03:30:17.460Z,9.75
2023-02-05T03:31:20.819Z,10.43
2023-02-05T03:32:33.298Z,10.98
2023-02-05T03:33:42.016Z,12.48
2023-02-05T03:34:53.341Z,12.25
2023-02-05T03:35:59.938Z,11.27
2023-02-05T03:37:11.727Z,13.98
2023-02-05T03:38:39.536Z,11.25
2023-02-05T03:39:50.937Z,11.65
2023-02-05T03:40:55.828Z,13.55
2023-02-05T03:42:09.755Z,15.25
2023-02-05T03:43:19.683Z,15.75
2023-02-05T03:44:47.174Z,16.48
2023-02-05T03:45:56.633Z,17.38
2023-02-05T03:47:02.671Z,16.73
2023-02-05T03:48:16.279Z,15.48
2023-02-05T03:49:21.372Z,12.15
2023-02-05T03:50:29.363Z,12.65
2023-02-05T03:51:38.077Z,13.15
2023-02-05T03:52:47.813Z,12.20
2023-02-05T03:53:58.358Z,11.50
2023-02-05T03:55:04.782Z,12.02
2023-02-05T03:56:11.137Z,11.68
2023-02-05T03:57:17.630Z,10.80
2023-02-05T03:58:25.274Z,10.35
2023-02-05T03:59:27.989Z,10.25
2023-02-05T04:00:31.617Z,10.75
2023-02-05T04:01:36.836Z,10.93
2023-02-05T04:02:39.850Z,10.88
2023-02-05T04:03:42.441Z,10.55
2023-02-05T04:04:46.563Z,11.05
2023-02-05T04:05:49.508Z,10.77
2023-02-05T04:06:54.413Z,10.75
2023-02-05T04:07:57.948Z,10.88
2023-02-05T04:09:06.366Z,10.38
2023-02-05T04:10:09.855Z,11.05
2023-02-05T04:11:14.130Z,10.55
2023-02-05T04:12:18.745Z,10.13
2023-02-05T04:13:22.820Z,11.13
2023-02-05T04:14:24.962Z,10.90
2023-02-05T04:15:28.185Z,9.90
2023-02-05T04:16:32.649Z,8.88
2023-02-05T04:17:38.607Z,9.43
2023-02-05T04:18:41.643Z,9.98
2023-02-05T04:19:43.782Z,9.38
2023-02-05T04:20:49.006Z,9.13
2023-02-05T04:21:54.401Z,9.95
2023-02-05T04:22:57.661Z,10.18
2023-02-05T04:24:00.734Z,9.30
2023-02-05T04:25:04.274Z,10.07
2023-02-05T04:26:06.389Z,10.07
2023-02-05T04:27:15.662Z,8.98
2023-02-05T04:28:17.789Z,9.77
2023-02-05T04:29:21.386Z,10.27
2023-02-05T04:30:26.085Z,8.82
2023-02-05T04:31:29.136Z,10.52
2023-02-05T04:32:31.985Z,10.57
2023-02-05T04:33:36.512Z,11.10
2023-02-05T04:34:38.465Z,10.88
2023-02-05T04:35:43.886Z,11.32
2023-02-05T04:36:48.485Z,12.80
2023-02-05T04:37:51.345Z,12.57
2023-02-05T04:38:54.614Z,13.60
2023-02-05T04:39:57.766Z,13.38
2023-02-05T04:41:00.642Z,13.25
2023-02-05T04:42:02.746Z,13.32
2023-02-05T04:43:06.020Z,14.07
2023-02-05T04:44:08.227Z,12.35
2023-02-05T04:45:13.307Z,11.63
2023-02-05T04:46:16.771Z,13.07
2023-02-05T04:47:18.807Z,11.80
2023-02-05T04:48:22.283Z,12.70
2023-02-05T04:49:25.703Z,10.82
2023-02-05T04:50:28.642Z,11.90
2023-02-05T04:51:30.784Z,12.23
2023-02-05T04:52:33.651Z,11.18
2023-02-05T04:53:35.624Z,10.88
2023-02-05T04:54:57.363Z,10.32
2023-02-05T04:56:05.527Z,10.18
2023-02-05T04:57:08.422Z,10.73
2023-02-05T04:58:10.443Z,10.50
2023-02-05T04:59:31.803Z,9.30
2023-02-05T05:00:33.845Z,11.82
2023-02-05T05:01:36.984Z,10.68
2023-02-05T05:02:38.942Z,10.88
2023-02-05T05:03:42.320Z,10.32
2023-02-05T05:04:45.607Z,9.18
2023-02-05T05:05:48.683Z,10.40
2023-02-05T05:06:51.181Z,10.30
2023-02-05T05:07:54.202Z,11.38
2023-02-05T05:08:56.313Z,10.82
2023-02-05T05:09:59.732Z,10.63
2023-02-05T05:11:06.478Z,9.38
2023-02-05T05:12:09.542Z,9.90
2023-02-05T05:13:11.542Z,9.90
2023-02-05T05:14:14.521Z,9.77
2023-02-05T05:15:16.689Z,10.50
2023-02-05T05:16:20.218Z,9.50
2023-02-05T05:17:22.202Z,10.55
2023-02-05T05:18:25.250Z,9.95
2023-02-05T05:19:27.302Z,10.13
2023-02-05T05:20:31.642Z,8.55
2023-02-05T05:21:34.062Z,10.00
2023-02-05T05:22:37.562Z,8.98
2023-02-05T05:23:39.544Z,10.18
2023-02-05T05:24:42.784Z,8.93
2023-02-05T05:25:46.361Z,10.27
2023-02-05T05:26:49.440Z,8.50
2023-02-05T05:27:51.455Z,9.63
2023-02-05T05:28:55.161Z,9.55
2023-02-05T05:29:57.100Z,8.02
2023-02-05T05:31:00.122Z,8.32
2023-02-05T05:32:02.384Z,7.93
2023-02-05T05:33:05.582Z,8.63
2023-02-05T05:34:07.699Z,7.60
2023-02-05T05:35:10.870Z,8.45
2023-02-05T05:36:14.373Z,7.53
2023-02-05T05:37:17.441Z,7.70
2023-02-05T05:38:20.006Z,7.80
2023-02-05T05:39:45.918Z,7.80
2023-02-05T05:41:06.200Z,8.10
2023-02-05T05:42:29.165Z,7.50
2023-02-05T05:43:50.284Z,8.57
2023-02-05T05:44:53.086Z,7.22
2023-02-05T05:45:56.731Z,7.85
2023-02-05T05:46:58.745Z,7.65
2023-02-05T05:48:02.318Z,7.82
2023-02-05T05:49:04.552Z,7.60
2023-02-05T05:50:08.280Z,8.60
2023-02-05T05:51:10.480Z,7.22
2023-02-05T05:52:15.129Z,8.95
2023-02-05T05:53:17.222Z,8.00
2023-02-05T05:54:20.277Z,7.57
2023-02-05T05:55:22.363Z,7.97
2023-02-05T05:56:25.404Z,8.07
2023-02-05T05:57:27.654Z,8.38
2023-02-05T05:58:30.594Z,8.30
2023-02-05T05:59:32.667Z,7.15
2023-02-05T06:00:35.734Z,9.13
2023-02-05T06:01:37.778Z,7.03
2023-02-05T06:02:43.898Z,8.25
2023-02-05T06:03:46.337Z,8.30
2023-02-05T06:04:49.353Z,7.10
2023-02-05T06:05:51.551Z,8.27
2023-02-05T06:06:59.293Z,8.20
2023-02-05T06:08:02.861Z,7.95
2023-02-05T06:09:06.131Z,8.15
2023-02-05T06:10:08.820Z,8.93
2023-02-05T06:11:12.033Z,7.38
2023-02-05T06:12:14.048Z,8.50
2023-02-05T06:13:17.349Z,9.65
2023-02-05T06:14:19.429Z,9.13
2023-02-05T06:15:23.209Z,10.63
2023-02-05T06:16:25.238Z,9.07
2023-02-05T06:17:28.273Z,9.73
2023-02-05T06:18:30.799Z,10.70
2023-02-05T06:19:33.950Z,10.25
2023-02-05T06:20:35.969Z,9.80
2023-02-05T06:21:39.010Z,10.15
2023-02-05T06:22:41.770Z,9.20
2023-02-05T06:23:46.104Z,9.00
2023-02-05T06:24:48.171Z,10.00
2023-02-05T06:25:51.746Z,10.48
2023-02-05T06:26:53.745Z,9.65
2023-02-05T06:27:56.883Z,10.10
2023-02-05T06:29:03.362Z,11.27
2023-02-05T06:30:07.110Z,9.95
2023-02-05T06:31:09.218Z,10.23
2023-02-05T06:32:12.636Z,11.88
2023-02-05T06:33:14.660Z,10.40
2023-02-05T06:34:17.571Z,8.88
2023-02-05T06:35:19.636Z,14.77
2023-02-05T06:36:22.626Z,14.32
2023-02-05T06:37:34.122Z,17.30
2023-02-05T06:38:37.467Z,17.13
2023-02-05T06:39:41.246Z,18.42
2023-02-05T06:40:44.286Z,15.98
2023-02-05T06:41:46.527Z,18.73
2023-02-05T06:42:49.522Z,17.70
2023-02-05T06:43:51.542Z,17.23
2023-02-05T06:44:55.105Z,19.58
2023-02-05T06:45:57.648Z,18.17
2023-02-05T06:47:01.008Z,17.73
2023-02-05T06:48:03.226Z,18.00
2023-02-05T06:49:06.220Z,16.67
2023-02-05T06:50:08.884Z,15.05
2023-02-05T06:51:13.552Z,16.10
2023-02-05T06:52:15.486Z,13.93
2023-02-05T06:53:18.467Z,13.32
2023-02-05T06:54:20.624Z,13.77
2023-02-05T06:55:24.986Z,13.63
2023-02-05T06:56:27.423Z,13.68
2023-02-05T06:57:31.867Z,13.07
2023-02-05T06:58:33.827Z,14.57
2023-02-05T06:59:36.728Z,15.02
2023-02-05T07:00:38.801Z,14.65
2023-02-05T07:01:41.761Z,15.48
2023-02-05T07:02:43.802Z,14.93
2023-02-05T07:03:48.460Z,13.45
2023-02-05T07:04:50.421Z,11.73
2023-02-05T07:05:53.266Z,12.52
2023-02-05T07:06:55.645Z,12.07
2023-02-05T07:07:59.797Z,12.32
2023-02-05T07:09:01.849Z,12.27
2023-02-05T07:10:05.405Z,10.82
2023-02-05T07:11:08.715Z,11.07
2023-02-05T07:12:11.638Z,10.80
2023-02-05T07:13:13.830Z,10.70
2023-02-05T07:14:16.866Z,9.88
2023-02-05T07:15:18.908Z,9.93
2023-02-05T07:16:22.050Z,10.10
2023-02-05T07:17:24.714Z,10.60
2023-02-05T07:18:27.608Z,10.52
2023-02-05T07:19:29.607Z,10.45
2023-02-05T07:20:32.629Z,9.73
2023-02-05T07:21:34.697Z,10.07
2023-02-05T07:22:37.745Z,9.63
2023-02-05T07:23:39.766Z,8.60
2023-02-05T07:24:42.823Z,9.38
2023-02-05T07:25:45.023Z,9.88
2023-02-05T07:26:49.444Z,9.80
2023-02-05T07:27:51.820Z,13.35
2023-02-05T07:28:55.345Z,20.02
2023-02-05T07:29:57.227Z,14.85
2023-02-05T07:31:04.301Z,19.38
2023-02-05T07:32:07.399Z,24.27
2023-02-05T07:33:10.772Z,18.52
2023-02-05T07:34:12.716Z,17.00
2023-02-05T07:35:16.115Z,19.38
2023-02-05T07:36:18.764Z,25.42
2023-02-05T07:37:24.013Z,19.63
2023-02-05T07:38:26.191Z,13.32
2023-02-05T07:39:31.164Z,10.45
2023-02-05T07:40:33.142Z,8.82
2023-02-05T07:41:36.269Z,10.05
2023-02-05T07:42:41.436Z,10.23
2023-02-05T07:43:44.981Z,10.85
2023-02-05T07:44:48.505Z,9.38
2023-02-05T07:45:56.218Z,7.45
2023-02-05T07:46:59.032Z,8.80
2023-02-05T07:48:00.998Z,8.10
2023-02-05T07:49:03.917Z,9.52
2023-02-05T07:50:07.325Z,8.43
2023-02-05T07:51:15.984Z,7.03
2023-02-05T07:52:18.856Z,8.50
2023-02-05T07:53:21.157Z,7.10
2023-02-05T07:54:24.677Z,8.25
2023-02-05T07:55:26.615Z,7.57
2023-02-05T07:56:29.574Z,6.70
2023-02-05T07:57:31.606Z,8.57
2023-02-05T07:58:35.941Z,5.88
2023-02-05T07:59:37.915Z,5.78
2023-02-05T08:00:41.145Z,6.07
2023-02-05T08:01:43.073Z,4.80
2023-02-05T08:02:46.115Z,5.68
2023-02-05T08:03:48.094Z,7.47
2023-02-05T08:04:51.188Z,8.07
2023-02-05T08:05:53.112Z,8.48
2023-02-05T08:06:56.448Z,9.45
2023-02-05T08:07:58.454Z,8.88
2023-02-05T08:09:01.412Z,9.20
2023-02-05T08:10:04.457Z,7.60
2023-02-05T08:11:08.178Z,9.00
2023-02-05T08:12:10.048Z,7.75
2023-02-05T08:13:13.411Z,6.00
2023-02-05T08:14:16.721Z,8.00
2023-02-05T08:15:19.881Z,8.45
2023-02-05T08:16:22.262Z,10.00
2023-02-05T08:17:25.262Z,5.43
2023-02-05T08:18:27.146Z,20.80
2023-02-05T08:19:30.068Z,20.65
2023-02-05T08:20:32.297Z,7.68
2023-02-05T08:21:35.210Z,9.82
2023-02-05T08:22:38.665Z,4.25
2023-02-05T08:23:41.511Z,8.68
2023-02-05T08:24:44.370Z,8.18
2023-02-05T08:25:46.454Z,5.18
2023-02-05T08:26:49.406Z,4.65
2023-02-05T08:27:51.271Z,5.60
2023-02-05T08:28:54.269Z,5.65
2023-02-05T08:29:57.580Z,4.43
2023-02-05T08:31:00.600Z,3.88
2023-02-05T08:32:02.561Z,4.00
2023-02-05T08:33:05.489Z,5.18
2023-02-05T08:34:07.460Z,4.22
2023-02-05T08:35:10.330Z,4.05
2023-02-05T08:36:13.324Z,4.50
2023-02-05T08:37:16.112Z,4.30
2023-02-05T08:38:18.188Z,3.75
2023-02-05T08:39:20.972Z,3.85
2023-02-05T08:40:22.848Z,4.05
2023-02-05T08:41:26.215Z,4.90
2023-02-05T08:42:28.124Z,6.93
2023-02-05T08:43:31.013Z,5.93
2023-02-05T08:44:34.113Z,5.72
2023-02-05T08:45:39.075Z,7.50
2023-02-05T08:46:49.718Z,6.80
2023-02-05T08:47:52.988Z,8.85
2023-02-05T08:48:55.828Z,8.10
2023-02-05T08:49:58.732Z,7.30
2023-02-05T08:51:00.744Z,9.90
2023-02-05T08:52:03.827Z,8.77
2023-02-05T08:53:07.140Z,8.52
2023-02-05T08:54:13.114Z,7.88
2023-02-05T08:55:18.230Z,9.80
2023-02-05T08:56:21.165Z,9.07
2023-02-05T08:57:27.177Z,6.68
2023-02-05T08:58:30.549Z,8.25
2023-02-05T08:59:33.336Z,5.07
2023-02-05T09:00:39.025Z,6.18
2023-02-05T09:01:45.718Z,6.68
2023-02-05T09:02:48.902Z,5.75
2023-02-05T09:03:51.247Z,6.57
2023-02-05T09:05:01.847Z,6.93
2023-02-05T09:06:12.541Z,8.32
2023-02-05T09:07:14.784Z,10.02
2023-02-05T09:08:17.995Z,11.60
2023-02-05T09:09:20.039Z,8.75
2023-02-05T09:10:23.004Z,7.57
2023-02-05T09:11:26.682Z,17.83
2023-02-05T09:12:29.579Z,15.88
2023-02-05T09:13:32.519Z,11.82
2023-02-05T09:14:36.373Z,6.07
2023-02-05T09:15:43.644Z,6.55
2023-02-05T09:16:46.597Z,8.50
2023-02-05T09:17:48.559Z,7.28
2023-02-05T09:18:52.268Z,7.70
2023-02-05T09:19:54.387Z,6.97
2023-02-05T09:20:57.346Z,9.93
2023-02-05T09:22:00.283Z,6.10
2023-02-05T09:23:02.318Z,5.10
2023-02-05T09:24:05.866Z,5.63
2023-02-05T09:25:08.252Z,4.93
2023-02-05T09:26:11.260Z,6.95
2023-02-05T09:27:14.961Z,12.63
2023-02-05T09:28:17.927Z,8.60
2023-02-05T09:29:21.521Z,6.35
2023-02-05T09:30:23.561Z,5.60
2023-02-05T09:31:27.921Z,11.98
2023-02-05T09:32:31.109Z,9.43
2023-02-05T09:33:32.987Z,7.85
2023-02-05T09:34:35.892Z,5.70
2023-02-05T09:35:57.564Z,9.05
2023-02-05T09:37:00.389Z,15.20
2023-02-05T09:38:03.389Z,7.10
2023-02-05T09:39:15.886Z,9.60
2023-02-05T09:40:28.188Z,12.45
2023-02-05T09:41:33.784Z,8.52
2023-02-05T09:42:39.819Z,9.82
2023-02-05T09:43:49.535Z,8.93
2023-02-05T09:45:00.053Z,11.55
2023-02-05T09:46:04.567Z,11.60
2023-02-05T09:47:13.152Z,9.20
2023-02-05T09:48:34.387Z,10.48
2023-02-05T09:49:42.075Z,8.18
2023-02-05T09:50:43.924Z,5.00
2023-02-05T09:51:48.826Z,5.05
2023-02-05T09:52:51.116Z,7.43
2023-02-05T09:53:57.746Z,9.30
2023-02-05T09:55:02.174Z,7.65
2023-02-05T09:56:08.253Z,9.88
2023-02-05T09:57:12.758Z,5.85
2023-02-05T09:58:18.600Z,5.72
2023-02-05T09:59:23.939Z,9.20
2023-02-05T10:00:27.836Z,5.53
2023-02-05T10:01:37.988Z,5.95
2023-02-05T10:02:50.466Z,6.32
2023-02-05T10:03:56.400Z,9.68
2023-02-05T10:04:59.308Z,9.63
2023-02-05T10:06:13.221Z,7.65
2023-02-05T10:07:22.690Z,6.65
2023-02-05T10:08:29.715Z,7.65
2023-02-05T10:09:45.040Z,8.18
2023-02-05T10:10:50.083Z,6.60
2023-02-05T10:11:59.737Z,7.30
2023-02-05T10:13:27.134Z,6.50
2023-02-05T10:14:43.335Z,9.55
2023-02-05T10:15:58.191Z,10.48
2023-02-05T10:17:21.201Z,11.70
2023-02-05T10:18:29.576Z,9.00
2023-02-05T10:19:56.006Z,10.55
2023-02-05T10:21:02.939Z,11.35
2023-02-05T10:22:11.839Z,13.93
2023-02-05T10:23:17.003Z,13.68
2023-02-05T10:24:37.420Z,10.05
2023-02-05T10:25:47.820Z,13.45
2023-02-05T10:26:52.543Z,10.90
2023-02-05T10:27:58.736Z,10.15
2023-02-05T10:29:27.542Z,8.80
2023-02-05T10:30:32.114Z,9.70
2023-02-05T10:31:43.921Z,9.25
2023-02-05T10:32:56.238Z,8.25
2023-02-05T10:34:21.076Z,10.05
2023-02-05T10:35:25.899Z,13.32
2023-02-05T10:36:28.758Z,12.13
2023-02-05T10:37:40.403Z,11.73
2023-02-05T10:38:44.928Z,11.10
2023-02-05T10:39:49.498Z,14.68
2023-02-05T10:40:54.470Z,14.45
2023-02-05T10:42:01.320Z,9.60
2023-02-05T10:43:11.157Z,11.52
2023-02-05T10:44:18.850Z,10.48
2023-02-05T10:45:22.909Z,11.27
2023-02-05T10:46:31.420Z,11.13
2023-02-05T10:47:46.108Z,10.02
2023-02-05T10:48:52.382Z,15.18
2023-02-05T10:49:59.074Z,12.73
2023-02-05T10:51:03.765Z,12.25
2023-02-05T10:52:06.603Z,11.38
2023-02-05T10:53:08.527Z,11.65
2023-02-05T10:54:20.100Z,11.68
2023-02-05T10:55:22.186Z,10.63
2023-02-05T10:56:25.051Z,10.68
2023-02-05T10:57:31.735Z,8.90
2023-02-05T10:58:40.805Z,13.52
2023-02-05T10:59:51.012Z,53.30
2023-02-05T11:00:53.356Z,33.83
2023-02-05T11:01:57.903Z,9.52
2023-02-05T11:02:59.990Z,21.98
2023-02-05T11:04:05.498Z,17.17
2023-02-05T11:05:18.196Z,12.75
2023-02-05T11:06:20.458Z,21.33
2023-02-05T11:07:27.336Z,19.15
2023-02-05T11:08:35.715Z,9.05
2023-02-05T11:09:38.626Z,6.97
2023-02-05T11:10:41.672Z,7.25
2023-02-05T11:11:44.552Z,7.75
2023-02-05T11:12:50.066Z,12.65
2023-02-05T11:13:56.984Z,8.75
2023-02-05T11:15:01.582Z,8.40
2023-02-05T11:16:05.831Z,8.57
2023-02-05T11:17:21.697Z,9.18
2023-02-05T11:18:25.148Z,8.88
2023-02-05T11:19:29.408Z,11.60
2023-02-05T11:20:35.815Z,8.55
2023-02-05T11:21:54.903Z,9.20
2023-02-05T11:23:09.475Z,15.05
2023-02-05T11:24:22.797Z,11.88
2023-02-05T11:25:26.480Z,9.27
2023-02-05T11:26:29.509Z,13.93
2023-02-05T11:27:32.239Z,11.02
2023-02-05T11:28:36.727Z,13.57
2023-02-05T11:29:38.664Z,8.00
2023-02-05T11:30:57.480Z,10.70
2023-02-05T11:32:00.696Z,9.20
2023-02-05T11:33:19.577Z,7.72
2023-02-05T11:34:22.480Z,9.50
2023-02-05T11:35:27.120Z,8.18
2023-02-05T11:36:31.366Z,9.18
2023-02-05T11:37:34.496Z,8.65
2023-02-05T11:38:44.931Z,9.07
2023-02-05T11:39:53.799Z,9.52
2023-02-05T11:40:58.898Z,9.15
2023-02-05T11:42:09.798Z,8.60
2023-02-05T11:43:27.349Z,12.15
2023-02-05T11:44:32.766Z,7.60
2023-02-05T11:45:37.657Z,7.32
2023-02-05T11:46:47.490Z,9.10
2023-02-05T11:47:49.639Z,8.75
2023-02-05T11:48:58.540Z,8.60
2023-02-05T11:50:00.715Z,9.77
2023-02-05T11:51:05.242Z,8.07
2023-02-05T11:52:12.093Z,9.30
2023-02-05T11:53:17.277Z,8.35
2023-02-05T11:54:24.454Z,9.07
2023-02-05T11:55:29.688Z,7.45
2023-02-05T11:56:32.522Z,7.93
2023-02-05T11:57:37.820Z,10.40
2023-02-05T11:58:40.748Z,8.95
2023-02-05T11:59:44.587Z,9.15
2023-02-05T12:00:52.406Z,8.55
2023-02-05T12:01:55.284Z,9.45
2023-02-05T12:03:05.638Z,10.35
2023-02-05T12:04:18.367Z,10.13
2023-02-05T12:05:23.320Z,9.85
2023-02-05T12:06:29.424Z,9.23
2023-02-05T12:07:37.606Z,9.32
2023-02-05T12:08:45.108Z,8.75
2023-02-05T12:09:48.396Z,9.02
2023-02-05T12:10:57.645Z,8.70
2023-02-05T12:12:07.276Z,9.32
2023-02-05T12:13:19.692Z,7.88
2023-02-05T12:14:29.031Z,8.68
2023-02-05T12:15:37.527Z,7.50
2023-02-05T12:16:47.603Z,7.28
2023-02-05T12:17:55.563Z,8.27
2023-02-05T12:19:03.067Z,8.05
2023-02-05T12:20:13.308Z,7.47
2023-02-05T12:21:23.924Z,7.85
2023-02-05T12:22:36.739Z,8.35
2023-02-05T12:23:58.834Z,8.10
2023-02-05T12:25:15.751Z,8.13
2023-02-05T12:26:27.953Z,7.13
2023-02-05T12:27:47.663Z,7.22
2023-02-05T12:28:57.228Z,6.85
2023-02-05T12:30:32.267Z,6.72
2023-02-05T12:31:46.660Z,6.35
2023-02-05T12:32:53.834Z,7.95
2023-02-05T12:34:12.586Z,7.47
2023-02-05T12:35:24.275Z,6.03
2023-02-05T12:36:39.207Z,6.65
2023-02-05T12:37:49.875Z,6.53
2023-02-05T12:39:03.231Z,6.63
2023-02-05T12:40:15.097Z,6.38
2023-02-05T12:41:24.911Z,6.60
2023-02-05T12:42:33.870Z,6.38
2023-02-05T12:43:38.642Z,6.68
2023-02-05T12:44:52.044Z,7.32
2023-02-05T12:46:03.755Z,7.10
2023-02-05T12:47:14.985Z,8.27
2023-02-05T12:48:29.674Z,9.32
2023-02-05T12:49:48.222Z,7.82
2023-02-05T12:50:58.498Z,7.22
2023-02-05T12:52:12.159Z,7.97
2023-02-05T12:53:29.328Z,7.85
2023-02-05T12:54:44.580Z,7.60
2023-02-05T12:55:55.395Z,6.80
2023-02-05T12:57:00.976Z,6.40
2023-02-05T12:58:05.316Z,6.35
2023-02-05T12:59:14.078Z,6.78
2023-02-05T13:00:19.617Z,6.47
2023-02-05T13:01:25.002Z,6.72
2023-02-05T13:02:32.057Z,6.60
2023-02-05T13:03:37.780Z,6.68
2023-02-05T13:04:43.032Z,6.13
2023-02-05T13:05:47.356Z,6.68
2023-02-05T13:06:54.163Z,6.47
2023-02-05T13:08:01.716Z,6.00
2023-02-05T13:09:07.456Z,6.38
2023-02-05T13:10:17.918Z,5.80
2023-02-05T13:11:27.916Z,6.50
2023-02-05T13:12:33.249Z,6.78
2023-02-05T13:13:40.574Z,6.57
2023-02-05T13:14:45.385Z,7.32
2023-02-05T13:15:56.268Z,7.43
2023-02-05T13:17:02.296Z,6.40
2023-02-05T13:18:08.124Z,6.75
2023-02-05T13:19:18.143Z,7.05
2023-02-05T13:20:46.729Z,6.47
2023-02-05T13:22:07.472Z,6.25
2023-02-05T13:23:24.526Z,6.50
2023-02-05T13:24:49.261Z,6.43
2023-02-05T13:26:09.625Z,6.03
2023-02-05T13:27:38.262Z,6.55
2023-02-05T13:28:43.526Z,6.82
2023-02-05T13:29:51.998Z,9.85
2023-02-05T13:30:55.978Z,12.63
2023-02-05T13:32:10.644Z,9.10
2023-02-05T13:33:18.604Z,8.55
2023-02-05T13:34:21.695Z,14.98
2023-02-05T13:35:24.390Z,13.23
2023-02-05T13:37:12.814Z,10.98
2023-02-05T13:38:25.288Z,8.73
2023-02-05T13:39:47.338Z,20.65
2023-02-05T13:41:09.852Z,10.10
2023-02-05T13:42:26.521Z,9.43
2023-02-05T13:43:37.224Z,7.97
2023-02-05T13:45:11.790Z,8.52
2023-02-05T13:46:33.326Z,7.55
2023-02-05T13:48:00.466Z,14.15
2023-02-05T13:49:13.246Z,17.85
2023-02-05T13:51:12.765Z,34.20
2023-02-05T13:52:40.254Z,12.80
2023-02-05T13:53:51.753Z,8.85
2023-02-05T13:55:08.507Z,8.43
2023-02-05T13:56:19.987Z,8.05
2023-02-05T13:57:51.774Z,8.02
2023-02-05T13:58:55.855Z,7.15
2023-02-05T13:59:58.130Z,8.63
2023-02-05T14:01:03.735Z,8.77
2023-02-05T14:02:26.211Z,7.75
2023-02-05T14:03:36.813Z,9.13
2023-02-05T14:04:41.635Z,9.10
2023-02-05T14:05:43.610Z,7.90
2023-02-05T14:06:52.400Z,8.60
2023-02-05T14:07:57.912Z,8.75
2023-02-05T14:09:04.523Z,7.97
2023-02-05T14:10:19.420Z,8.00
2023-02-05T14:11:23.955Z,7.57
2023-02-05T14:12:28.032Z,8.80
2023-02-05T14:13:33.786Z,8.70
2023-02-05T14:14:37.161Z,8.70
2023-02-05T14:15:41.084Z,7.97
2023-02-05T14:16:46.381Z,8.43
2023-02-05T14:17:54.451Z,7.70
2023-02-05T14:19:12.458Z,7.18
2023-02-05T14:20:34.318Z,9.20
2023-02-05T14:22:01.384Z,8.05
2023-02-05T14:23:06.449Z,7.45
2023-02-05T14:24:27.815Z,8.50
2023-02-05T14:26:06.174Z,5.40
2023-02-05T14:27:50.027Z,6.15
2023-02-05T14:28:52.841Z,7.78
2023-02-05T14:30:39.640Z,9.02
2023-02-05T14:31:49.547Z,9.73
2023-02-05T14:32:59.659Z,9.68
2023-02-05T14:34:44.129Z,11.45
2023-02-05T14:35:49.085Z,10.85
2023-02-05T14:36:53.097Z,9.10
2023-02-05T14:37:58.336Z,9.30
2023-02-05T14:39:02.402Z,11.95
2023-02-05T14:40:27.594Z,10.45
2023-02-05T14:41:31.374Z,10.30
2023-02-05T14:42:35.353Z,9.55
2023-02-05T14:43:40.213Z,9.27
2023-02-05T14:44:43.429Z,8.55
2023-02-05T14:45:47.669Z,8.15
2023-02-05T14:47:10.184Z,6.68
2023-02-05T14:48:20.373Z,6.40
2023-02-05T14:49:25.692Z,6.68
2023-02-05T14:50:29.135Z,5.82
2023-02-05T14:51:37.382Z,7.97
2023-02-05T14:52:46.509Z,7.03
2023-02-05T14:53:56.272Z,7.30
2023-02-05T14:55:01.698Z,7.72
2023-02-05T14:56:06.259Z,7.18
2023-02-05T14:57:12.341Z,7.60
2023-02-05T14:58:23.328Z,8.13
2023-02-05T14:59:29.870Z,8.63
2023-02-05T15:00:34.935Z,8.30
2023-02-05T15:01:46.508Z,7.63
2023-02-05T15:03:08.636Z,8.60
2023-02-05T15:04:25.731Z,8.10
2023-02-05T15:05:33.458Z,8.65
2023-02-05T15:06:41.728Z,8.88
2023-02-05T15:07:44.397Z,8.25
2023-02-05T15:08:52.376Z,7.82
2023-02-05T15:09:59.266Z,8.20
2023-02-05T15:11:06.658Z,8.65
2023-02-05T15:12:29.973Z,8.45